createdAt,value
2023-05-19T00:00:40.725Z,8.48
2023-05-19T00:05:56.082Z,8.48
2023-05-19T00:10:59.841Z,8.46
2023-05-19T00:16:03.471Z,8.45
2023-05-19T00:21:06.665Z,8.46
2023-05-19T00:26:10.895Z,8.44
2023-05-19T00:31:14.220Z,8.43
2023-05-19T00:36:17.530Z,8.41
2023-05-19T00:41:21.446Z,8.40
2023-05-19T00:46:25.302Z,8.39
2023-05-19T00:51:30.112Z,8.40
2023-05-19T00:56:33.843Z,8.41
2023-05-19T01:01:37.690Z,8.41
2023-05-19T01:06:42.639Z,8.42
2023-05-19T01:11:46.119Z,8.44
2023-05-19T01:17:21.071Z,8.45
2023-05-19T01:22:55.307Z,8.46
2023-05-19T01:28:55.653Z,8.47
2023-05-19T01:34:00.553Z,8.49
2023-05-19T01:39:04.325Z,8.50
2023-05-19T01:44:08.665Z,8.52
2023-05-19T01:49:12.339Z,8.54
2023-05-19T01:54:15.795Z,8.55
2023-05-19T01:59:35.085Z,8.57
2023-05-19T02:05:11.499Z,8.59
2023-05-19T02:10:33.432Z,8.63
2023-05-19T02:15:42.665Z,8.66
2023-05-19T02:20:45.974Z,8.68
2023-05-19T02:25:49.277Z,8.69
2023-05-19T02:30:52.491Z,8.70
2023-05-19T02:35:56.558Z,8.69
2023-05-19T02:40:59.736Z,8.65
2023-05-19T02:46:02.954Z,8.60
2023-05-19T02:51:06.136Z,8.54
2023-05-19T02:56:09.567Z,8.48
2023-05-19T03:01:12.876Z,8.46
2023-05-19T03:06:18.271Z,8.45
2023-05-19T03:11:21.430Z,8.46
2023-05-19T03:16:24.980Z,8.49
2023-05-19T03:21:28.257Z,8.51
2023-05-19T03:26:31.371Z,8.55
2023-05-19T03:31:34.571Z,8.61
2023-05-19T03:36:40.441Z,8.69
2023-05-19T03:41:43.752Z,8.78
2023-05-19T03:46:46.966Z,8.90
2023-05-19T03:51:50.179Z,9.05
2023-05-19T03:56:53.888Z,9.17
2023-05-19T04:01:58.146Z,9.29
2023-05-19T04:07:01.533Z,9.37
2023-05-19T04:12:06.004Z,9.43
2023-05-19T04:17:09.528Z,9.48
2023-05-19T04:22:12.801Z,9.55
2023-05-19T04:27:16.413Z,9.63
2023-05-19T04:32:19.526Z,9.71
2023-05-19T04:37:23.035Z,9.74
2023-05-19T04:42:26.560Z,9.80
2023-05-19T04:47:30.525Z,9.87
2023-05-19T04:52:34.443Z,9.97
2023-05-19T04:57:38.015Z,10.11
2023-05-19T05:02:43.283Z,10.26
2023-05-19T05:07:47.098Z,10.40
2023-05-19T05:12:50.921Z,10.52
2023-05-19T05:17:54.554Z,10.67
2023-05-19T05:22:58.350Z,10.80
2023-05-19T05:28:05.449Z,10.93
2023-05-19T05:33:09.675Z,11.03
2023-05-19T05:38:13.403Z,11.15
2023-05-19T05:43:16.845Z,11.32
2023-05-19T05:48:20.536Z,11.44
2023-05-19T05:53:26.102Z,11.69
2023-05-19T05:58:29.804Z,11.98
2023-05-19T06:03:33.714Z,12.19
2023-05-19T06:08:37.159Z,12.37
2023-05-19T06:13:43.598Z,12.48
2023-05-19T06:18:47.079Z,12.45
2023-05-19T06:23:50.283Z,12.54
2023-05-19T06:28:53.380Z,12.75
2023-05-19T06:33:56.583Z,12.91
2023-05-19T06:39:01.309Z,13.11
2023-05-19T06:44:10.847Z,13.29
2023-05-19T06:49:14.295Z,13.57
2023-05-19T06:54:17.577Z,13.87
2023-05-19T06:59:22.673Z,14.17
2023-05-19T07:04:26.108Z,14.36
2023-05-19T07:09:29.277Z,14.66
2023-05-19T07:14:32.586Z,14.78
2023-05-19T07:19:35.794Z,15.06
2023-05-19T07:24:38.999Z,15.38
2023-05-19T07:29:42.313Z,15.62
2023-05-19T07:34:46.038Z,15.61
2023-05-19T07:39:49.280Z,15.78
2023-05-19T07:44:52.452Z,15.61
2023-05-19T07:49:55.757Z,15.36
2023-05-19T07:54:59.991Z,15.24
2023-05-19T08:00:07.971Z,15.19
2023-05-19T08:05:11.936Z,15.51
2023-05-19T08:10:15.650Z,15.80
2023-05-19T08:15:19.372Z,15.99
2023-05-19T08:20:23.302Z,16.01
2023-05-19T08:25:26.611Z,16.09
2023-05-19T08:30:29.839Z,16.18
2023-05-19T08:35:33.479Z,16.19
2023-05-19T08:40:38.392Z,16.07
2023-05-19T08:45:46.816Z,15.92
2023-05-19T08:51:01.186Z,15.90
2023-05-19T08:56:37.571Z,15.97
2023-05-19T09:01:46.045Z,15.99
2023-05-19T09:06:50.645Z,15.98
2023-05-19T09:11:53.958Z,16.12
2023-05-19T09:16:57.418Z,16.46
2023-05-19T09:22:03.676Z,16.52
2023-05-19T09:27:07.266Z,16.63
2023-05-19T09:32:10.658Z,16.75
2023-05-19T09:37:14.090Z,16.85
2023-05-19T09:42:17.453Z,16.70
2023-05-19T09:47:20.971Z,16.44
2023-05-19T09:52:24.851Z,16.25
2023-05-19T09:57:28.866Z,16.33
2023-05-19T10:02:33.243Z,16.52
2023-05-19T10:07:37.872Z,16.58
2023-05-19T10:12:42.586Z,16.61
2023-05-19T10:17:46.949Z,16.76
2023-05-19T10:22:50.641Z,16.83
2023-05-19T10:27:58.877Z,16.61
2023-05-19T10:33:07.902Z,16.30
2023-05-19T10:38:35.698Z,16.00
2023-05-19T10:44:00.412Z,15.82
2023-05-19T10:49:03.619Z,15.82
2023-05-19T10:54:14.394Z,15.73
2023-05-19T10:59:35.847Z,15.33
2023-05-19T11:04:51.766Z,15.13
2023-05-19T11:09:55.364Z,15.02
2023-05-19T11:14:59.707Z,14.90
2023-05-19T11:20:24.631Z,14.77
2023-05-19T11:25:45.333Z,14.73
2023-05-19T11:30:50.882Z,14.86
2023-05-19T11:35:59.726Z,14.95
2023-05-19T11:41:04.130Z,15.08
2023-05-19T11:46:10.108Z,15.33
2023-05-19T11:51:13.764Z,15.49
2023-05-19T11:56:16.970Z,15.58
2023-05-19T12:01:27.448Z,15.50
2023-05-19T12:06:31.378Z,15.38
2023-05-19T12:11:35.609Z,15.23
2023-05-19T12:27:22.517Z,14.56
2023-05-19T12:32:26.200Z,14.26
2023-05-19T12:37:29.736Z,14.03
2023-05-19T12:42:31.933Z,13.90
2023-05-19T12:47:35.392Z,13.96
2023-05-19T12:52:43.455Z,14.09
2023-05-19T12:57:51.633Z,14.16
2023-05-19T13:03:04.789Z,14.06
2023-05-19T13:08:07.919Z,13.89
2023-05-19T13:13:09.915Z,13.64
2023-05-19T13:18:13.435Z,13.45
2023-05-19T13:23:15.611Z,13.35
2023-05-19T13:28:18.320Z,13.50
2023-05-19T13:33:20.412Z,13.66
2023-05-19T13:38:22.276Z,13.74
2023-05-19T13:43:24.765Z,13.66
2023-05-19T13:48:27.055Z,13.53
2023-05-19T13:53:30.772Z,13.38
2023-05-19T13:58:32.749Z,13.16
2023-05-19T14:03:34.979Z,13.00
2023-05-19T14:08:37.016Z,12.85
2023-05-19T14:13:41.925Z,12.75
2023-05-19T14:18:45.399Z,12.72
2023-05-19T14:23:47.703Z,12.83
2023-05-19T14:28:50.151Z,13.09
2023-05-19T14:33:52.244Z,13.33
2023-05-19T14:38:54.106Z,13.57
2023-05-19T14:43:56.285Z,13.78
2023-05-19T14:48:58.162Z,13.92
2023-05-19T14:54:01.713Z,14.07
2023-05-19T14:59:04.074Z,14.09
2023-05-19T15:04:06.102Z,14.07
2023-05-19T15:09:08.086Z,13.96
2023-05-19T15:14:10.212Z,13.82
2023-05-19T15:19:12.491Z,13.73
2023-05-19T15:24:15.503Z,13.56
2023-05-19T15:29:17.791Z,13.56
2023-05-19T15:34:20.704Z,13.64
2023-05-19T15:39:22.874Z,13.79
2023-05-19T15:44:27.632Z,13.98
2023-05-19T15:49:30.933Z,13.98
2023-05-19T15:54:33.424Z,13.89
2023-05-19T15:59:37.679Z,13.81
2023-05-19T16:04:42.375Z,13.71
2023-05-19T16:09:46.911Z,13.61
2023-05-19T16:14:49.737Z,13.53
2023-05-19T16:19:51.674Z,13.47
2023-05-19T16:24:53.715Z,13.39
2023-05-19T16:29:55.591Z,13.34
2023-05-19T16:34:57.448Z,13.26
2023-05-19T16:40:00.054Z,13.24
2023-05-19T16:45:02.224Z,13.20
2023-05-19T16:50:06.980Z,13.13
2023-05-19T16:55:09.488Z,13.07
2023-05-19T17:00:12.987Z,13.03
2023-05-19T17:05:15.587Z,12.98
2023-05-19T17:10:18.057Z,12.92
2023-05-19T17:15:19.937Z,12.86
2023-05-19T17:20:21.822Z,12.80
2023-05-19T17:25:23.793Z,12.76
2023-05-19T17:30:26.077Z,12.72
2023-05-19T17:35:28.612Z,12.67
2023-05-19T17:40:31.378Z,12.62
2023-05-19T17:45:34.069Z,12.57
2023-05-19T17:50:36.252Z,12.51
2023-05-19T17:55:38.943Z,12.47
2023-05-19T18:00:41.268Z,12.43
2023-05-19T18:05:44.389Z,12.40
2023-05-19T18:10:48.922Z,12.37
2023-05-19T18:15:52.323Z,12.33
2023-05-19T18:20:54.677Z,12.29
2023-05-19T18:25:56.602Z,12.24
2023-05-19T18:31:04.265Z,12.20
2023-05-19T18:36:07.265Z,12.17
2023-05-19T18:41:09.347Z,12.13
2023-05-19T18:46:12.942Z,12.09
2023-05-19T18:51:15.559Z,12.06
2023-05-19T18:56:27.891Z,12.03
2023-05-19T19:01:30.012Z,12.00
2023-05-19T19:06:32.119Z,11.96
2023-05-19T19:11:35.570Z,11.93
2023-05-19T19:16:38.151Z,11.90
2023-05-19T19:21:40.344Z,11.88
2023-05-19T19:26:42.727Z,11.86
2023-05-19T19:31:44.986Z,11.83
2023-05-19T19:36:49.252Z,11.80
2023-05-19T19:41:51.949Z,11.78
2023-05-19T19:46:54.294Z,11.76
2023-05-19T19:51:56.955Z,11.74
2023-05-19T19:56:59.727Z,11.73
2023-05-19T20:02:02.764Z,11.70
2023-05-19T20:07:04.862Z,11.69
2023-05-19T20:12:08.237Z,11.68
2023-05-19T20:17:10.918Z,11.67
2023-05-19T20:22:13.720Z,11.65
2023-05-19T20:27:16.112Z,11.64
2023-05-19T20:32:18.625Z,11.64
2023-05-19T20:37:22.014Z,11.63
2023-05-19T20:42:24.035Z,11.61
2023-05-19T20:47:26.937Z,11.61
2023-05-19T20:52:31.901Z,11.59
2023-05-19T20:57:34.444Z,11.57
2023-05-19T21:02:36.768Z,11.56
2023-05-19T21:07:39.022Z,11.55
2023-05-19T21:12:42.319Z,11.53
2023-05-19T21:17:44.849Z,11.52
2023-05-19T21:22:48.024Z,11.51
2023-05-19T21:27:51.753Z,11.49
2023-05-19T21:32:54.646Z,11.49
2023-05-19T21:37:56.729Z,11.48
2023-05-19T21:42:58.702Z,11.48
2023-05-19T21:48:00.784Z,11.46
2023-05-19T21:53:03.075Z,11.46
2023-05-19T21:58:05.255Z,11.45
2023-05-19T22:03:07.587Z,11.44
2023-05-19T22:08:10.544Z,11.44
2023-05-19T22:13:12.421Z,11.44
2023-05-19T22:18:14.907Z,11.43
2023-05-19T22:23:16.787Z,11.42
2023-05-19T22:28:18.663Z,11.42
2023-05-19T22:33:20.819Z,11.43
2023-05-19T22:38:22.635Z,11.42
2023-05-19T22:43:24.704Z,11.41
2023-05-19T22:48:26.577Z,11.41
2023-05-19T22:53:28.451Z,11.40
2023-05-19T22:58:30.237Z,11.40
2023-05-19T23:03:34.154Z,11.40
2023-05-19T23:08:36.130Z,11.40
2023-05-19T23:13:38.005Z,11.39
2023-05-19T23:18:40.112Z,11.39
2023-05-19T23:23:42.067Z,11.39
2023-05-19T23:28:44.249Z,11.39
2023-05-19T23:33:46.133Z,11.39
2023-05-19T23:38:47.986Z,11.38
2023-05-19T23:43:49.987Z,11.38
2023-05-19T23:48:51.873Z,11.38
2023-05-19T23:53:53.745Z,11.37
2023-05-19T23:58:55.727Z,11.36
